Airport ICAO


14:36 UTC

11°C

Broken clouds


An affordable passengers' Moving Map for your aircraft. Made for the iPad and the iPhone
More information here

LFOB Tille


Beauvais FRANCE   VFR CB


METAR LFOB 241430Z AUTO 21005KT 9999 SCT025 BKN032 11/07 Q1011 TEMPO 3000 RA BKN008 BKN020CB 0h06min

TAF AMD LFOB 241206Z 2412/2512 27004KT 9999 BKN020 TEMPO 2412/2502 3000 RA BKN008 BKN020CB 2h30min





NOTAMS

OPEN